sensor_id;sensor_type;location;lat;lon;timestamp;temperature;humidity
80676;SHT30;70041;46.088;18.268;2024-03-17T00:02:02;10.05;90.58
80676;SHT30;70041;46.088;18.268;2024-03-17T00:04:27;10.09;90.51
80676;SHT30;70041;46.088;18.268;2024-03-17T00:06:53;10.13;89.57
80676;SHT30;70041;46.088;18.268;2024-03-17T00:09:18;10.17;89.46
80676;SHT30;70041;46.088;18.268;2024-03-17T00:11:44;10.20;89.94
80676;SHT30;70041;46.088;18.268;2024-03-17T00:14:10;10.26;89.80
80676;SHT30;70041;46.088;18.268;2024-03-17T00:16:36;10.30;87.83
80676;SHT30;70041;46.088;18.268;2024-03-17T00:19:02;10.28;87.78
80676;SHT30;70041;46.088;18.268;2024-03-17T00:21:27;10.24;88.19
80676;SHT30;70041;46.088;18.268;2024-03-17T00:23:54;10.22;88.51
80676;SHT30;70041;46.088;18.268;2024-03-17T00:26:19;10.22;88.78
80676;SHT30;70041;46.088;18.268;2024-03-17T00:28:46;10.22;88.88
80676;SHT30;70041;46.088;18.268;2024-03-17T00:31:13;10.14;89.45
80676;SHT30;70041;46.088;18.268;2024-03-17T00:33:40;10.22;89.84
80676;SHT30;70041;46.088;18.268;2024-03-17T00:36:06;10.29;90.01
80676;SHT30;70041;46.088;18.268;2024-03-17T00:38:31;10.37;89.84
80676;SHT30;70041;46.088;18.268;2024-03-17T00:40:56;10.33;89.96
80676;SHT30;70041;46.088;18.268;2024-03-17T00:43:22;10.40;90.01
80676;SHT30;70041;46.088;18.268;2024-03-17T00:45:54;10.37;90.08
80676;SHT30;70041;46.088;18.268;2024-03-17T00:48:19;10.37;90.15
80676;SHT30;70041;46.088;18.268;2024-03-17T00:50:45;10.33;90.44
80676;SHT30;70041;46.088;18.268;2024-03-17T00:53:13;10.34;90.46
80676;SHT30;70041;46.088;18.268;2024-03-17T00:55:39;10.37;90.04
80676;SHT30;70041;46.088;18.268;2024-03-17T00:58:05;10.40;90.01
80676;SHT30;70041;46.088;18.268;2024-03-17T01:00:30;10.43;90.01
80676;SHT30;70041;46.088;18.268;2024-03-17T01:02:58;10.46;90.18
80676;SHT30;70041;46.088;18.268;2024-03-17T01:05:23;10.51;89.93
80676;SHT30;70041;46.088;18.268;2024-03-17T01:07:49;10.57;90.01
80676;SHT30;70041;46.088;18.268;2024-03-17T01:10:15;10.56;89.92
80676;SHT30;70041;46.088;18.268;2024-03-17T01:12:40;10.61;89.89
80676;SHT30;70041;46.088;18.268;2024-03-17T01:15:06;10.68;89.59
80676;SHT30;70041;46.088;18.268;2024-03-17T01:17:32;10.70;89.62
80676;SHT30;70041;46.088;18.268;2024-03-17T01:19:58;10.59;89.69
80676;SHT30;70041;46.088;18.268;2024-03-17T01:22:23;10.53;89.64
80676;SHT30;70041;46.088;18.268;2024-03-17T01:24:48;10.54;89.39
80676;SHT30;70041;46.088;18.268;2024-03-17T01:27:14;10.46;89.69
80676;SHT30;70041;46.088;18.268;2024-03-17T01:29:44;10.40;90.21
80676;SHT30;70041;46.088;18.268;2024-03-17T01:32:10;10.37;90.22
80676;SHT30;70041;46.088;18.268;2024-03-17T01:34:38;10.17;90.72
80676;SHT30;70041;46.088;18.268;2024-03-17T01:37:04;10.14;91.30
80676;SHT30;70041;46.088;18.268;2024-03-17T01:39:30;10.26;90.95
80676;SHT30;70041;46.088;18.268;2024-03-17T01:41:56;10.22;91.10
80676;SHT30;70041;46.088;18.268;2024-03-17T01:44:22;10.10;91.30
80676;SHT30;70041;46.088;18.268;2024-03-17T01:46:50;10.09;91.51
80676;SHT30;70041;46.088;18.268;2024-03-17T01:49:15;10.09;91.56
80676;SHT30;70041;46.088;18.268;2024-03-17T01:51:41;9.92;92.00
80676;SHT30;70041;46.088;18.268;2024-03-17T01:54:08;9.77;92.44
80676;SHT30;70041;46.088;18.268;2024-03-17T01:56:33;9.81;92.88
80676;SHT30;70041;46.088;18.268;2024-03-17T01:59:01;9.81;92.78
80676;SHT30;70041;46.088;18.268;2024-03-17T02:01:26;9.68;93.14
80676;SHT30;70041;46.088;18.268;2024-03-17T02:03:52;9.58;93.77
80676;SHT30;70041;46.088;18.268;2024-03-17T02:06:17;9.49;93.94
80676;SHT30;70041;46.088;18.268;2024-03-17T02:08:49;9.45;93.95
80676;SHT30;70041;46.088;18.268;2024-03-17T02:11:35;9.42;94.29
80676;SHT30;70041;46.088;18.268;2024-03-17T02:14:01;9.35;94.20
80676;SHT30;70041;46.088;18.268;2024-03-17T02:16:26;9.32;94.32
80676;SHT30;70041;46.088;18.268;2024-03-17T02:18:56;9.30;94.44
80676;SHT30;70041;46.088;18.268;2024-03-17T02:21:22;9.30;94.38
80676;SHT30;70041;46.088;18.268;2024-03-17T02:23:48;9.28;94.41
80676;SHT30;70041;46.088;18.268;2024-03-17T02:26:14;9.26;94.32
80676;SHT30;70041;46.088;18.268;2024-03-17T02:28:44;9.30;94.24
80676;SHT30;70041;46.088;18.268;2024-03-17T02:31:11;9.28;94.40
80676;SHT30;70041;46.088;18.268;2024-03-17T02:33:37;9.23;94.53
80676;SHT30;70041;46.088;18.268;2024-03-17T02:36:04;9.23;94.29
80676;SHT30;70041;46.088;18.268;2024-03-17T02:38:30;9.30;93.76
80676;SHT30;70041;46.088;18.268;2024-03-17T02:41:16;9.49;91.47
80676;SHT30;70041;46.088;18.268;2024-03-17T02:43:41;9.63;90.02
80676;SHT30;70041;46.088;18.268;2024-03-17T02:46:07;10.13;85.46
80676;SHT30;70041;46.088;18.268;2024-03-17T02:48:36;10.46;83.92
80676;SHT30;70041;46.088;18.268;2024-03-17T02:51:03;10.53;83.20
80676;SHT30;70041;46.088;18.268;2024-03-17T02:53:29;10.54;82.91
80676;SHT30;70041;46.088;18.268;2024-03-17T02:55:55;10.56;82.50
80676;SHT30;70041;46.088;18.268;2024-03-17T02:58:20;10.68;81.48
80676;SHT30;70041;46.088;18.268;2024-03-17T03:00:46;10.71;81.28
80676;SHT30;70041;46.088;18.268;2024-03-17T03:03:11;10.75;81.02
80676;SHT30;70041;46.088;18.268;2024-03-17T03:05:36;10.75;80.86
80676;SHT30;70041;46.088;18.268;2024-03-17T03:08:03;10.75;80.96
80676;SHT30;70041;46.088;18.268;2024-03-17T03:10:29;10.70;81.16
80676;SHT30;70041;46.088;18.268;2024-03-17T03:12:55;10.73;80.64
80676;SHT30;70041;46.088;18.268;2024-03-17T03:15:20;10.65;80.78
80676;SHT30;70041;46.088;18.268;2024-03-17T03:17:46;10.68;80.88
80676;SHT30;70041;46.088;18.268;2024-03-17T03:20:11;10.65;80.73
80676;SHT30;70041;46.088;18.268;2024-03-17T03:22:37;10.60;81.21
80676;SHT30;70041;46.088;18.268;2024-03-17T03:25:02;10.60;81.50
80676;SHT30;70041;46.088;18.268;2024-03-17T03:27:28;10.61;81.66
80676;SHT30;70041;46.088;18.268;2024-03-17T03:29:53;10.59;81.76
80676;SHT30;70041;46.088;18.268;2024-03-17T03:32:21;10.47;82.04
80676;SHT30;70041;46.088;18.268;2024-03-17T03:34:47;10.50;82.76
80676;SHT30;70041;46.088;18.268;2024-03-17T03:37:12;10.59;81.96
80676;SHT30;70041;46.088;18.268;2024-03-17T03:39:38;10.61;81.97
80676;SHT30;70041;46.088;18.268;2024-03-17T03:42:03;10.70;81.75
80676;SHT30;70041;46.088;18.268;2024-03-17T03:44:29;10.68;81.82
80676;SHT30;70041;46.088;18.268;2024-03-17T03:46:54;10.73;81.42
80676;SHT30;70041;46.088;18.268;2024-03-17T03:49:25;10.75;81.53
80676;SHT30;70041;46.088;18.268;2024-03-17T03:51:50;10.78;81.41
80676;SHT30;70041;46.088;18.268;2024-03-17T03:54:16;10.84;80.79
80676;SHT30;70041;46.088;18.268;2024-03-17T03:56:41;10.84;80.98
80676;SHT30;70041;46.088;18.268;2024-03-17T03:59:06;10.84;80.95
80676;SHT30;70041;46.088;18.268;2024-03-17T04:01:32;10.80;81.01
80676;SHT30;70041;46.088;18.268;2024-03-17T04:03:57;10.85;80.74
80676;SHT30;70041;46.088;18.268;2024-03-17T04:06:23;10.85;80.75
80676;SHT30;70041;46.088;18.268;2024-03-17T04:08:48;10.90;80.05
80676;SHT30;70041;46.088;18.268;2024-03-17T04:11:13;10.97;79.66
80676;SHT30;70041;46.088;18.268;2024-03-17T04:13:39;10.90;79.80
80676;SHT30;70041;46.088;18.268;2024-03-17T04:16:05;10.83;80.00
80676;SHT30;70041;46.088;18.268;2024-03-17T04:18:32;10.80;80.27
80676;SHT30;70041;46.088;18.268;2024-03-17T04:21:02;10.74;80.22
80676;SHT30;70041;46.088;18.268;2024-03-17T04:23:28;10.68;80.77
80676;SHT30;70041;46.088;18.268;2024-03-17T04:25:54;10.68;80.72
80676;SHT30;70041;46.088;18.268;2024-03-17T04:28:19;10.61;81.02
80676;SHT30;70041;46.088;18.268;2024-03-17T04:30:45;10.61;80.78
80676;SHT30;70041;46.088;18.268;2024-03-17T04:33:14;10.61;80.75
80676;SHT30;70041;46.088;18.268;2024-03-17T04:35:39;10.57;80.72
80676;SHT30;70041;46.088;18.268;2024-03-17T04:38:05;10.54;80.91
80676;SHT30;70041;46.088;18.268;2024-03-17T04:40:32;10.50;81.17
80676;SHT30;70041;46.088;18.268;2024-03-17T04:42:57;10.41;81.59
80676;SHT30;70041;46.088;18.268;2024-03-17T04:45:23;10.43;81.33
80676;SHT30;70041;46.088;18.268;2024-03-17T04:47:48;10.41;81.16
80676;SHT30;70041;46.088;18.268;2024-03-17T04:50:14;10.36;81.37
80676;SHT30;70041;46.088;18.268;2024-03-17T04:52:39;10.34;81.36
80676;SHT30;70041;46.088;18.268;2024-03-17T04:55:05;10.37;81.37
80676;SHT30;70041;46.088;18.268;2024-03-17T04:57:30;10.33;81.46
80676;SHT30;70041;46.088;18.268;2024-03-17T04:59:56;10.30;81.38
80676;SHT30;70041;46.088;18.268;2024-03-17T05:02:21;10.36;81.24
80676;SHT30;70041;46.088;18.268;2024-03-17T05:04:48;10.30;81.39
80676;SHT30;70041;46.088;18.268;2024-03-17T05:07:14;10.24;81.46
80676;SHT30;70041;46.088;18.268;2024-03-17T05:09:42;10.24;81.43
80676;SHT30;70041;46.088;18.268;2024-03-17T05:12:09;10.10;81.91
80676;SHT30;70041;46.088;18.268;2024-03-17T05:14:34;10.08;81.96
80676;SHT30;70041;46.088;18.268;2024-03-17T05:17:00;10.05;82.28
80676;SHT30;70041;46.088;18.268;2024-03-17T05:19:25;9.99;82.10
80676;SHT30;70041;46.088;18.268;2024-03-17T05:21:51;9.93;82.58
80676;SHT30;70041;46.088;18.268;2024-03-17T05:24:16;9.89;82.53
80676;SHT30;70041;46.088;18.268;2024-03-17T05:26:42;9.89;82.51
80676;SHT30;70041;46.088;18.268;2024-03-17T05:29:08;9.93;81.88
80676;SHT30;70041;46.088;18.268;2024-03-17T05:31:34;9.99;81.48
80676;SHT30;70041;46.088;18.268;2024-03-17T05:34:00;10.00;81.49
80676;SHT30;70041;46.088;18.268;2024-03-17T05:36:25;9.98;81.41
80676;SHT30;70041;46.088;18.268;2024-03-17T05:38:51;9.95;81.23
80676;SHT30;70041;46.088;18.268;2024-03-17T05:41:16;9.96;81.02
80676;SHT30;70041;46.088;18.268;2024-03-17T05:43:41;10.05;80.11
80676;SHT30;70041;46.088;18.268;2024-03-17T05:46:11;10.00;80.22
80676;SHT30;70041;46.088;18.268;2024-03-17T05:48:39;10.16;79.29
80676;SHT30;70041;46.088;18.268;2024-03-17T05:51:11;10.23;78.91
80676;SHT30;70041;46.088;18.268;2024-03-17T05:53:38;10.28;78.56
80676;SHT30;70041;46.088;18.268;2024-03-17T05:56:06;10.39;78.42
80676;SHT30;70041;46.088;18.268;2024-03-17T05:58:32;10.39;77.76
80676;SHT30;70041;46.088;18.268;2024-03-17T06:01:01;10.37;77.95
80676;SHT30;70041;46.088;18.268;2024-03-17T06:03:27;10.40;77.28
80676;SHT30;70041;46.088;18.268;2024-03-17T06:05:52;10.39;77.59
80676;SHT30;70041;46.088;18.268;2024-03-17T06:08:19;10.32;77.19
80676;SHT30;70041;46.088;18.268;2024-03-17T06:10:46;10.29;77.55
80676;SHT30;70041;46.088;18.268;2024-03-17T06:13:13;10.23;77.44
80676;SHT30;70041;46.088;18.268;2024-03-17T06:15:40;10.24;77.38
80676;SHT30;70041;46.088;18.268;2024-03-17T06:18:06;10.16;77.87
80676;SHT30;70041;46.088;18.268;2024-03-17T06:20:42;10.10;77.64
80676;SHT30;70041;46.088;18.268;2024-03-17T06:23:08;10.08;78.52
80676;SHT30;70041;46.088;18.268;2024-03-17T06:26:00;10.09;77.10
80676;SHT30;70041;46.088;18.268;2024-03-17T06:28:27;10.09;77.04
80676;SHT30;70041;46.088;18.268;2024-03-17T06:30:59;10.13;76.37
80676;SHT30;70041;46.088;18.268;2024-03-17T06:33:25;10.16;76.19
80676;SHT30;70041;46.088;18.268;2024-03-17T06:35:50;10.20;76.18
80676;SHT30;70041;46.088;18.268;2024-03-17T06:38:16;10.32;75.53
80676;SHT30;70041;46.088;18.268;2024-03-17T06:40:47;10.40;74.86
80676;SHT30;70041;46.088;18.268;2024-03-17T06:43:12;10.50;74.19
80676;SHT30;70041;46.088;18.268;2024-03-17T06:45:38;10.57;74.39
80676;SHT30;70041;46.088;18.268;2024-03-17T06:48:04;10.61;75.03
80676;SHT30;70041;46.088;18.268;2024-03-17T06:50:30;10.70;74.52
80676;SHT30;70041;46.088;18.268;2024-03-17T06:52:55;10.80;73.96
80676;SHT30;70041;46.088;18.268;2024-03-17T06:55:21;10.87;73.86
80676;SHT30;70041;46.088;18.268;2024-03-17T06:57:47;10.94;72.65
80676;SHT30;70041;46.088;18.268;2024-03-17T07:00:13;10.97;72.80
80676;SHT30;70041;46.088;18.268;2024-03-17T07:02:43;11.02;71.38
80676;SHT30;70041;46.088;18.268;2024-03-17T07:05:15;11.00;71.89
80676;SHT30;70041;46.088;18.268;2024-03-17T07:07:42;11.07;71.94
80676;SHT30;70041;46.088;18.268;2024-03-17T07:10:07;11.19;69.79
80676;SHT30;70041;46.088;18.268;2024-03-17T07:12:34;11.19;70.14
80676;SHT30;70041;46.088;18.268;2024-03-17T07:14:59;11.21;70.25
80676;SHT30;70041;46.088;18.268;2024-03-17T07:17:24;11.16;70.43
80676;SHT30;70041;46.088;18.268;2024-03-17T07:19:50;11.21;69.69
80676;SHT30;70041;46.088;18.268;2024-03-17T07:22:16;11.18;69.84
80676;SHT30;70041;46.088;18.268;2024-03-17T07:24:41;11.19;69.80
80676;SHT30;70041;46.088;18.268;2024-03-17T07:27:09;11.25;69.84
80676;SHT30;70041;46.088;18.268;2024-03-17T07:29:38;11.32;69.82
80676;SHT30;70041;46.088;18.268;2024-03-17T07:32:04;11.43;68.55
80676;SHT30;70041;46.088;18.268;2024-03-17T07:34:33;11.43;68.97
80676;SHT30;70041;46.088;18.268;2024-03-17T07:37:00;11.43;68.41
80676;SHT30;70041;46.088;18.268;2024-03-17T07:39:29;11.47;68.47
80676;SHT30;70041;46.088;18.268;2024-03-17T07:41:58;11.52;68.14
80676;SHT30;70041;46.088;18.268;2024-03-17T07:44:24;11.55;68.35
80676;SHT30;70041;46.088;18.268;2024-03-17T07:46:49;11.63;67.80
80676;SHT30;70041;46.088;18.268;2024-03-17T07:49:14;11.66;66.55
80676;SHT30;70041;46.088;18.268;2024-03-17T07:51:41;11.66;66.94
80676;SHT30;70041;46.088;18.268;2024-03-17T07:54:06;11.66;66.78
80676;SHT30;70041;46.088;18.268;2024-03-17T07:56:32;11.66;65.94
80676;SHT30;70041;46.088;18.268;2024-03-17T07:58:57;11.72;66.13
80676;SHT30;70041;46.088;18.268;2024-03-17T08:01:23;11.66;64.90
80676;SHT30;70041;46.088;18.268;2024-03-17T08:03:48;11.66;65.53
80676;SHT30;70041;46.088;18.268;2024-03-17T08:06:18;11.70;65.55
80676;SHT30;70041;46.088;18.268;2024-03-17T08:08:44;11.72;66.51
80676;SHT30;70041;46.088;18.268;2024-03-17T08:11:09;11.80;65.18
80676;SHT30;70041;46.088;18.268;2024-03-17T08:13:35;11.79;65.23
80676;SHT30;70041;46.088;18.268;2024-03-17T08:16:02;11.91;64.33
80676;SHT30;70041;46.088;18.268;2024-03-17T08:18:28;11.86;64.07
80676;SHT30;70041;46.088;18.268;2024-03-17T08:20:54;11.84;64.27
80676;SHT30;70041;46.088;18.268;2024-03-17T08:23:20;11.98;63.39
80676;SHT30;70041;46.088;18.268;2024-03-17T08:26:01;12.08;63.81
80676;SHT30;70041;46.088;18.268;2024-03-17T08:28:27;12.14;63.94
80676;SHT30;70041;46.088;18.268;2024-03-17T08:30:57;12.31;63.21
80676;SHT30;70041;46.088;18.268;2024-03-17T08:33:24;12.24;63.38
80676;SHT30;70041;46.088;18.268;2024-03-17T08:35:57;12.23;63.72
80676;SHT30;70041;46.088;18.268;2024-03-17T08:38:23;12.14;63.47
80676;SHT30;70041;46.088;18.268;2024-03-17T08:40:52;12.13;62.90
80676;SHT30;70041;46.088;18.268;2024-03-17T08:43:19;12.13;63.01
80676;SHT30;70041;46.088;18.268;2024-03-17T08:45:45;12.17;62.97
80676;SHT30;70041;46.088;18.268;2024-03-17T08:48:19;12.17;61.02
80676;SHT30;70041;46.088;18.268;2024-03-17T08:50:50;12.17;60.12
80676;SHT30;70041;46.088;18.268;2024-03-17T08:53:16;12.26;60.18
80676;SHT30;70041;46.088;18.268;2024-03-17T08:55:41;12.37;58.69
80676;SHT30;70041;46.088;18.268;2024-03-17T08:58:07;12.30;58.06
80676;SHT30;70041;46.088;18.268;2024-03-17T09:00:32;12.36;57.52
80676;SHT30;70041;46.088;18.268;2024-03-17T09:02:58;12.34;56.84
80676;SHT30;70041;46.088;18.268;2024-03-17T09:05:23;12.31;56.94
80676;SHT30;70041;46.088;18.268;2024-03-17T09:07:48;12.37;56.67
80676;SHT30;70041;46.088;18.268;2024-03-17T09:10:14;12.40;56.48
80676;SHT30;70041;46.088;18.268;2024-03-17T09:12:39;12.51;56.39
80676;SHT30;70041;46.088;18.268;2024-03-17T09:15:06;12.62;54.81
80676;SHT30;70041;46.088;18.268;2024-03-17T09:17:31;12.57;54.28
80676;SHT30;70041;46.088;18.268;2024-03-17T09:19:57;12.57;55.69
80676;SHT30;70041;46.088;18.268;2024-03-17T09:22:22;12.72;55.99
80676;SHT30;70041;46.088;18.268;2024-03-17T09:24:47;12.77;55.31
80676;SHT30;70041;46.088;18.268;2024-03-17T09:27:13;12.82;55.00
80676;SHT30;70041;46.088;18.268;2024-03-17T09:29:46;12.92;55.13
80676;SHT30;70041;46.088;18.268;2024-03-17T09:32:11;12.96;54.64
80676;SHT30;70041;46.088;18.268;2024-03-17T09:34:46;12.96;54.68
80676;SHT30;70041;46.088;18.268;2024-03-17T09:37:13;13.06;53.66
80676;SHT30;70041;46.088;18.268;2024-03-17T09:39:39;13.02;54.51
80676;SHT30;70041;46.088;18.268;2024-03-17T09:42:05;13.10;54.79
80676;SHT30;70041;46.088;18.268;2024-03-17T09:44:33;13.18;54.27
80676;SHT30;70041;46.088;18.268;2024-03-17T09:47:00;13.26;53.99
80676;SHT30;70041;46.088;18.268;2024-03-17T09:49:26;13.35;53.17
80676;SHT30;70041;46.088;18.268;2024-03-17T09:51:54;13.49;52.72
80676;SHT30;70041;46.088;18.268;2024-03-17T09:54:21;13.57;54.07
80676;SHT30;70041;46.088;18.268;2024-03-17T09:56:47;13.67;52.54
80676;SHT30;70041;46.088;18.268;2024-03-17T09:59:16;13.70;53.00
80676;SHT30;70041;46.088;18.268;2024-03-17T10:01:41;13.70;51.94
80676;SHT30;70041;46.088;18.268;2024-03-17T10:04:08;13.73;52.33
80676;SHT30;70041;46.088;18.268;2024-03-17T10:06:44;13.69;52.30
80676;SHT30;70041;46.088;18.268;2024-03-17T10:09:15;13.75;50.72
80676;SHT30;70041;46.088;18.268;2024-03-17T10:11:46;13.84;51.19
80676;SHT30;70041;46.088;18.268;2024-03-17T10:14:16;13.95;51.28
80676;SHT30;70041;46.088;18.268;2024-03-17T10:16:43;13.92;50.38
80676;SHT30;70041;46.088;18.268;2024-03-17T10:19:16;13.84;49.61
80676;SHT30;70041;46.088;18.268;2024-03-17T10:21:46;13.84;50.18
80676;SHT30;70041;46.088;18.268;2024-03-17T10:24:25;13.81;49.95
80676;SHT30;70041;46.088;18.268;2024-03-17T10:26:52;14.00;50.63
80676;SHT30;70041;46.088;18.268;2024-03-17T10:29:28;14.17;50.90
80676;SHT30;70041;46.088;18.268;2024-03-17T10:31:59;14.39;49.19
80676;SHT30;70041;46.088;18.268;2024-03-17T10:34:27;14.36;49.51
80676;SHT30;70041;46.088;18.268;2024-03-17T10:37:15;14.39;48.91
80676;SHT30;70041;46.088;18.268;2024-03-17T10:39:45;14.41;49.29
80676;SHT30;70041;46.088;18.268;2024-03-17T10:42:12;14.45;49.15
80676;SHT30;70041;46.088;18.268;2024-03-17T10:44:40;14.46;49.21
80676;SHT30;70041;46.088;18.268;2024-03-17T10:47:22;14.58;47.63
80676;SHT30;70041;46.088;18.268;2024-03-17T10:49:50;14.52;48.97
80676;SHT30;70041;46.088;18.268;2024-03-17T10:52:16;14.43;47.60
80676;SHT30;70041;46.088;18.268;2024-03-17T10:54:48;14.58;47.47
80676;SHT30;70041;46.088;18.268;2024-03-17T10:57:45;14.83;49.05
80676;SHT30;70041;46.088;18.268;2024-03-17T11:00:14;15.24;45.76
80676;SHT30;70041;46.088;18.268;2024-03-17T11:02:44;15.41;47.38
80676;SHT30;70041;46.088;18.268;2024-03-17T11:05:24;15.35;46.06
80676;SHT30;70041;46.088;18.268;2024-03-17T11:07:53;15.37;46.88
80676;SHT30;70041;46.088;18.268;2024-03-17T11:10:28;15.51;46.48
80676;SHT30;70041;46.088;18.268;2024-03-17T11:12:55;15.53;45.59
80676;SHT30;70041;46.088;18.268;2024-03-17T11:18:12;15.74;44.62
80676;SHT30;70041;46.088;18.268;2024-03-17T11:23:55;15.88;45.11
80676;SHT30;70041;46.088;18.268;2024-03-17T11:26:33;15.89;45.06
80676;SHT30;70041;46.088;18.268;2024-03-17T11:29:01;16.20;44.17
80676;SHT30;70041;46.088;18.268;2024-03-17T11:31:37;16.29;44.86
80676;SHT30;70041;46.088;18.268;2024-03-17T11:34:06;16.19;44.09
80676;SHT30;70041;46.088;18.268;2024-03-17T11:39:06;16.15;45.37
80676;SHT30;70041;46.088;18.268;2024-03-17T11:41:44;16.10;44.61
80676;SHT30;70041;46.088;18.268;2024-03-17T11:46:45;15.98;45.11
80676;SHT30;70041;46.088;18.268;2024-03-17T11:51:42;16.06;45.40
80676;SHT30;70041;46.088;18.268;2024-03-17T11:54:15;16.13;44.07
80676;SHT30;70041;46.088;18.268;2024-03-17T11:56:49;15.99;44.28
80676;SHT30;70041;46.088;18.268;2024-03-17T11:59:15;15.68;43.46
80676;SHT30;70041;46.088;18.268;2024-03-17T12:01:44;15.47;44.04
80676;SHT30;70041;46.088;18.268;2024-03-17T12:04:09;15.74;44.62
80676;SHT30;70041;46.088;18.268;2024-03-17T12:06:35;16.05;44.61
80676;SHT30;70041;46.088;18.268;2024-03-17T12:09:30;16.12;44.19
80676;SHT30;70041;46.088;18.268;2024-03-17T12:12:05;16.33;45.03
80676;SHT30;70041;46.088;18.268;2024-03-17T12:14:32;16.52;44.29
80676;SHT30;70041;46.088;18.268;2024-03-17T12:17:04;16.42;43.99
80676;SHT30;70041;46.088;18.268;2024-03-17T12:19:30;16.37;43.72
80676;SHT30;70041;46.088;18.268;2024-03-17T12:21:57;16.06;43.80
80676;SHT30;70041;46.088;18.268;2024-03-17T12:24:25;16.10;44.43
80676;SHT30;70041;46.088;18.268;2024-03-17T12:26:52;16.22;44.80
80676;SHT30;70041;46.088;18.268;2024-03-17T12:29:37;16.42;44.71
80676;SHT30;70041;46.088;18.268;2024-03-17T12:34:37;16.66;42.30
80676;SHT30;70041;46.088;18.268;2024-03-17T12:37:03;15.82;43.06
80676;SHT30;70041;46.088;18.268;2024-03-17T12:39:50;16.01;44.25
80676;SHT30;70041;46.088;18.268;2024-03-17T12:42:36;16.25;43.43
80676;SHT30;70041;46.088;18.268;2024-03-17T12:45:03;16.30;44.18
80676;SHT30;70041;46.088;18.268;2024-03-17T12:47:34;16.09;44.20
80676;SHT30;70041;46.088;18.268;2024-03-17T12:50:01;16.36;44.59
80676;SHT30;70041;46.088;18.268;2024-03-17T12:52:31;16.52;43.48
80676;SHT30;70041;46.088;18.268;2024-03-17T12:55:08;16.42;43.51
80676;SHT30;70041;46.088;18.268;2024-03-17T13:00:45;16.66;43.13
80676;SHT30;70041;46.088;18.268;2024-03-17T13:03:23;16.80;43.15
80676;SHT30;70041;46.088;18.268;2024-03-17T13:05:49;16.80;43.44
80676;SHT30;70041;46.088;18.268;2024-03-17T13:08:14;16.87;44.20
80676;SHT30;70041;46.088;18.268;2024-03-17T13:10:41;16.87;45.10
80676;SHT30;70041;46.088;18.268;2024-03-17T13:13:08;17.15;42.77
80676;SHT30;70041;46.088;18.268;2024-03-17T13:15:34;17.12;41.04
80676;SHT30;70041;46.088;18.268;2024-03-17T13:18:04;16.77;43.04
80676;SHT30;70041;46.088;18.268;2024-03-17T13:20:33;16.81;41.12
80676;SHT30;70041;46.088;18.268;2024-03-17T13:22:59;16.78;41.34
80676;SHT30;70041;46.088;18.268;2024-03-17T13:25:26;16.84;41.11
80676;SHT30;70041;46.088;18.268;2024-03-17T13:27:55;16.56;41.58
80676;SHT30;70041;46.088;18.268;2024-03-17T13:30:22;16.46;41.98
80676;SHT30;70041;46.088;18.268;2024-03-17T13:32:49;16.56;42.04
80676;SHT30;70041;46.088;18.268;2024-03-17T13:35:18;16.60;42.96
80676;SHT30;70041;46.088;18.268;2024-03-17T13:37:45;16.52;43.29
80676;SHT30;70041;46.088;18.268;2024-03-17T13:40:11;16.64;42.72
80676;SHT30;70041;46.088;18.268;2024-03-17T13:42:38;16.81;41.65
80676;SHT30;70041;46.088;18.268;2024-03-17T13:45:05;16.83;41.42
80676;SHT30;70041;46.088;18.268;2024-03-17T13:47:31;16.91;41.94
80676;SHT30;70041;46.088;18.268;2024-03-17T13:49:58;16.88;42.44
80676;SHT30;70041;46.088;18.268;2024-03-17T13:52:23;16.73;41.86
80676;SHT30;70041;46.088;18.268;2024-03-17T13:54:49;16.64;42.84
80676;SHT30;70041;46.088;18.268;2024-03-17T13:57:14;16.64;42.77
80676;SHT30;70041;46.088;18.268;2024-03-17T13:59:41;16.63;42.70
80676;SHT30;70041;46.088;18.268;2024-03-17T14:02:12;16.42;42.57
80676;SHT30;70041;46.088;18.268;2024-03-17T14:04:37;16.53;42.66
80676;SHT30;70041;46.088;18.268;2024-03-17T14:07:03;16.43;43.37
80676;SHT30;70041;46.088;18.268;2024-03-17T14:09:29;16.50;43.64
80676;SHT30;70041;46.088;18.268;2024-03-17T14:11:55;16.50;43.29
80676;SHT30;70041;46.088;18.268;2024-03-17T14:14:22;16.53;43.47
80676;SHT30;70041;46.088;18.268;2024-03-17T14:16:48;16.53;43.41
80676;SHT30;70041;46.088;18.268;2024-03-17T14:19:13;16.33;44.69
80676;SHT30;70041;46.088;18.268;2024-03-17T14:21:39;16.29;43.32
80676;SHT30;70041;46.088;18.268;2024-03-17T14:24:04;16.06;43.23
80676;SHT30;70041;46.088;18.268;2024-03-17T14:26:33;16.19;42.71
80676;SHT30;70041;46.088;18.268;2024-03-17T14:28:59;16.19;42.79
80676;SHT30;70041;46.088;18.268;2024-03-17T14:31:25;16.70;41.93
80676;SHT30;70041;46.088;18.268;2024-03-17T14:33:51;16.78;41.53
80676;SHT30;70041;46.088;18.268;2024-03-17T14:36:16;16.67;42.03
80676;SHT30;70041;46.088;18.268;2024-03-17T14:38:43;16.77;41.96
80676;SHT30;70041;46.088;18.268;2024-03-17T14:41:08;16.88;41.49
80676;SHT30;70041;46.088;18.268;2024-03-17T14:43:34;16.63;42.17
80676;SHT30;70041;46.088;18.268;2024-03-17T14:46:04;16.74;42.33
80676;SHT30;70041;46.088;18.268;2024-03-17T14:48:29;16.53;42.50
80676;SHT30;70041;46.088;18.268;2024-03-17T14:50:55;16.64;42.26
80676;SHT30;70041;46.088;18.268;2024-03-17T14:53:20;16.98;41.81
80676;SHT30;70041;46.088;18.268;2024-03-17T14:55:46;17.31;41.27
80676;SHT30;70041;46.088;18.268;2024-03-17T14:58:11;17.51;40.41
80676;SHT30;70041;46.088;18.268;2024-03-17T15:00:37;18.50;39.16
80676;SHT30;70041;46.088;18.268;2024-03-17T15:03:03;19.13;37.30
80676;SHT30;70041;46.088;18.268;2024-03-17T15:05:31;19.57;37.33
80676;SHT30;70041;46.088;18.268;2024-03-17T15:07:56;20.35;36.65
80676;SHT30;70041;46.088;18.268;2024-03-17T15:10:23;19.86;35.58
80676;SHT30;70041;46.088;18.268;2024-03-17T15:12:48;19.91;35.75
80676;SHT30;70041;46.088;18.268;2024-03-17T15:15:14;19.62;36.18
80676;SHT30;70041;46.088;18.268;2024-03-17T15:17:39;19.90;35.90
80676;SHT30;70041;46.088;18.268;2024-03-17T15:20:06;20.32;35.85
80676;SHT30;70041;46.088;18.268;2024-03-17T15:22:47;20.48;35.27
80676;SHT30;70041;46.088;18.268;2024-03-17T15:25:14;20.39;34.84
80676;SHT30;70041;46.088;18.268;2024-03-17T15:27:44;20.51;35.02
80676;SHT30;70041;46.088;18.268;2024-03-17T15:30:17;20.38;35.40
80676;SHT30;70041;46.088;18.268;2024-03-17T15:32:51;20.47;35.53
80676;SHT30;70041;46.088;18.268;2024-03-17T15:35:20;20.82;35.42
80676;SHT30;70041;46.088;18.268;2024-03-17T15:37:45;21.75;33.98
80676;SHT30;70041;46.088;18.268;2024-03-17T15:40:11;21.34;34.50